createdAt,value
2022-10-14T00:01:27.072Z,80.15
2022-10-14T00:03:55.929Z,80.14
2022-10-14T00:06:26.889Z,79.79
2022-10-14T00:08:56.869Z,79.77
2022-10-14T00:11:26.987Z,79.82
2022-10-14T00:13:56.658Z,79.65
2022-10-14T00:16:28.670Z,79.69
2022-10-14T00:18:57.839Z,79.89
2022-10-14T00:21:27.321Z,80.02
2022-10-14T00:23:57.886Z,80.23
2022-10-14T00:26:29.583Z,80.03
2022-10-14T00:28:59.332Z,80.24
2022-10-14T00:31:28.133Z,80.16
2022-10-14T00:33:56.902Z,80.22
2022-10-14T00:36:26.177Z,80.36
2022-10-14T00:38:56.600Z,80.37
2022-10-14T00:41:27.131Z,80.29
2022-10-14T00:43:59.393Z,80.32
2022-10-14T00:46:29.133Z,80.36
2022-10-14T00:49:06.464Z,80.14
2022-10-14T00:51:36.426Z,80.28
2022-10-14T00:54:06.294Z,80.21
2022-10-14T00:56:36.408Z,80.46
2022-10-14T00:59:08.501Z,80.45
2022-10-14T01:01:36.905Z,80.53
2022-10-14T01:04:05.602Z,80.53
2022-10-14T01:06:47.990Z,80.13
2022-10-14T01:09:27.258Z,80.09
2022-10-14T01:12:27.641Z,79.91
2022-10-14T01:14:59.999Z,80.11
2022-10-14T01:17:36.907Z,79.99
2022-10-14T01:20:28.915Z,79.85
2022-10-14T01:23:11.280Z,79.82
2022-10-14T01:25:53.115Z,79.95
2022-10-14T01:28:29.361Z,79.98
2022-10-14T01:31:03.978Z,79.65
2022-10-14T01:33:38.687Z,79.78
2022-10-14T01:36:12.371Z,80.11
2022-10-14T01:38:46.195Z,80.21
2022-10-14T01:41:21.031Z,79.88
2022-10-14T01:43:53.261Z,80.08
2022-10-14T01:46:26.342Z,79.82
2022-10-14T01:49:07.003Z,79.65
2022-10-14T01:51:40.958Z,79.92
2022-10-14T01:54:16.251Z,79.80
2022-10-14T01:56:48.206Z,79.78
2022-10-14T01:59:19.856Z,80.01
2022-10-14T02:01:49.723Z,79.98
2022-10-14T02:04:20.038Z,79.93
2022-10-14T02:06:52.191Z,79.77
2022-10-14T02:09:29.187Z,79.89
2022-10-14T02:12:11.862Z,79.59
2022-10-14T02:14:49.518Z,79.73
2022-10-14T02:17:24.443Z,79.74
2022-10-14T02:19:59.684Z,79.57
2022-10-14T02:22:34.015Z,79.71
2022-10-14T02:25:10.988Z,79.62
2022-10-14T02:27:42.815Z,79.92
2022-10-14T02:30:13.113Z,79.89
2022-10-14T02:32:44.118Z,79.72
2022-10-14T02:35:17.272Z,79.56
2022-10-14T02:37:49.908Z,79.51
2022-10-14T02:40:23.454Z,79.37
2022-10-14T02:42:51.858Z,79.67
2022-10-14T02:45:21.230Z,79.48
2022-10-14T02:47:50.937Z,79.59
2022-10-14T02:50:19.558Z,79.77
2022-10-14T02:52:48.327Z,79.76
2022-10-14T02:55:16.722Z,79.79
2022-10-14T02:57:45.721Z,79.78
2022-10-14T03:00:15.166Z,79.87
2022-10-14T03:02:44.507Z,79.99
2022-10-14T03:05:16.170Z,80.01
2022-10-14T03:07:45.128Z,79.90
2022-10-14T03:10:15.724Z,79.79
2022-10-14T03:12:44.078Z,79.92
2022-10-14T03:15:21.068Z,80.04
2022-10-14T03:17:51.002Z,79.96
2022-10-14T03:20:25.771Z,79.89
2022-10-14T03:22:57.868Z,79.74
2022-10-14T03:25:26.440Z,79.80
2022-10-14T03:28:01.436Z,79.70
2022-10-14T03:30:49.255Z,79.74
2022-10-14T03:33:31.921Z,79.82
2022-10-14T03:36:18.454Z,79.87
2022-10-14T03:38:51.382Z,79.79
2022-10-14T03:41:42.978Z,79.82
2022-10-14T03:44:13.410Z,79.55
2022-10-14T03:46:47.523Z,79.51
2022-10-14T03:49:15.835Z,79.43
2022-10-14T03:51:46.253Z,79.50
2022-10-14T03:54:23.507Z,79.75
2022-10-14T03:56:52.117Z,80.14
2022-10-14T03:59:22.000Z,80.07
2022-10-14T04:01:53.618Z,80.25
2022-10-14T04:04:25.771Z,80.31
2022-10-14T04:06:55.879Z,80.07
2022-10-14T04:09:24.296Z,79.97
2022-10-14T04:11:52.517Z,80.04
2022-10-14T04:14:43.436Z,80.29
2022-10-14T04:17:12.316Z,80.11
2022-10-14T04:19:40.583Z,79.74
2022-10-14T04:22:11.530Z,79.92
2022-10-14T04:24:40.385Z,80.41
2022-10-14T04:27:09.502Z,80.39
2022-10-14T04:29:48.376Z,80.57
2022-10-14T04:32:26.720Z,80.27
2022-10-14T04:34:56.486Z,80.29
2022-10-14T04:37:29.234Z,80.08
2022-10-14T04:40:20.555Z,80.43
2022-10-14T04:42:49.244Z,80.70
2022-10-14T04:45:25.348Z,80.57
2022-10-14T04:48:00.456Z,80.62
2022-10-14T04:50:29.159Z,80.27
2022-10-14T04:53:31.171Z,80.45
2022-10-14T04:56:14.526Z,80.53
2022-10-14T04:58:52.925Z,80.58
2022-10-14T05:01:22.409Z,80.81
2022-10-14T05:03:51.407Z,80.51
2022-10-14T05:06:20.319Z,80.69
2022-10-14T05:08:54.050Z,80.39
2022-10-14T05:11:23.139Z,80.62
2022-10-14T05:13:56.299Z,80.66
2022-10-14T05:16:26.968Z,80.69
2022-10-14T05:18:55.357Z,80.45
2022-10-14T05:21:26.167Z,80.36
2022-10-14T05:24:12.200Z,80.38
2022-10-14T05:26:41.846Z,80.57
2022-10-14T05:29:13.242Z,80.56
2022-10-14T05:31:42.336Z,80.60
2022-10-14T05:34:49.147Z,80.83
2022-10-14T05:37:36.214Z,80.72
2022-10-14T05:40:07.045Z,80.21
2022-10-14T05:42:37.702Z,80.56
2022-10-14T05:45:07.061Z,80.78
2022-10-14T05:47:38.742Z,80.55
2022-10-14T05:50:15.924Z,80.75
2022-10-14T05:52:46.363Z,80.52
2022-10-14T05:55:21.634Z,80.78
2022-10-14T05:57:56.325Z,80.82
2022-10-14T06:00:28.108Z,80.90
2022-10-14T06:03:03.720Z,80.81
2022-10-14T06:05:32.389Z,80.64
2022-10-14T06:08:00.669Z,80.44
2022-10-14T06:10:30.385Z,80.44
2022-10-14T06:12:58.753Z,80.73
2022-10-14T06:15:28.353Z,80.61
2022-10-14T06:17:57.550Z,80.69
2022-10-14T06:20:27.208Z,80.67
2022-10-14T06:22:55.550Z,80.60
2022-10-14T06:25:23.849Z,80.32
2022-10-14T06:27:53.698Z,80.73
2022-10-14T06:30:22.552Z,80.93
2022-10-14T06:32:54.208Z,80.92
2022-10-14T06:35:22.514Z,80.92
2022-10-14T06:37:52.219Z,81.00
2022-10-14T06:40:21.213Z,81.11
2022-10-14T06:42:49.663Z,81.26
2022-10-14T06:45:21.197Z,81.19
2022-10-14T06:47:49.428Z,81.41
2022-10-14T06:50:17.654Z,81.50
2022-10-14T06:52:46.474Z,81.19
2022-10-14T06:55:15.130Z,81.04
2022-10-14T06:57:43.561Z,80.93
2022-10-14T07:00:12.786Z,81.09
2022-10-14T07:02:42.827Z,81.43
2022-10-14T07:05:11.450Z,81.62
2022-10-14T07:07:39.749Z,81.74
2022-10-14T07:10:08.655Z,81.78
2022-10-14T07:12:37.380Z,82.10
2022-10-14T07:15:07.733Z,81.72
2022-10-14T07:17:36.149Z,81.87
2022-10-14T07:20:06.571Z,81.84
2022-10-14T07:22:38.760Z,81.79
2022-10-14T07:25:08.705Z,81.60
2022-10-14T07:27:37.114Z,81.82
2022-10-14T07:30:06.938Z,81.88
2022-10-14T07:32:37.981Z,81.85
2022-10-14T07:35:08.449Z,82.16
2022-10-14T07:37:38.362Z,82.19
2022-10-14T07:40:07.718Z,81.99
2022-10-14T07:42:36.086Z,81.95
2022-10-14T07:45:04.812Z,82.47
2022-10-14T07:47:33.927Z,82.22
2022-10-14T07:50:02.716Z,82.55
2022-10-14T07:52:32.445Z,82.28
2022-10-14T07:55:00.617Z,82.45
2022-10-14T07:57:29.744Z,82.29
2022-10-14T07:59:58.283Z,82.65
2022-10-14T08:02:26.671Z,82.30
2022-10-14T08:05:04.103Z,82.62
2022-10-14T08:07:43.107Z,82.69
2022-10-14T08:10:11.329Z,82.65
2022-10-14T08:12:39.735Z,82.49
2022-10-14T08:15:08.668Z,82.65
2022-10-14T08:17:37.016Z,82.56
2022-10-14T08:20:05.876Z,82.57
2022-10-14T08:22:34.216Z,82.68
2022-10-14T08:25:03.837Z,82.49
2022-10-14T08:27:32.189Z,82.65
2022-10-14T08:30:00.338Z,82.55
2022-10-14T08:32:28.614Z,82.12
2022-10-14T08:34:56.941Z,82.11
2022-10-14T08:37:25.199Z,82.31
2022-10-14T08:39:53.497Z,82.51
2022-10-14T08:42:46.089Z,82.25
2022-10-14T08:45:19.941Z,82.86
2022-10-14T08:47:48.872Z,83.00
2022-10-14T08:50:28.993Z,82.83
2022-10-14T08:53:00.633Z,82.87
2022-10-14T08:55:34.932Z,82.62
2022-10-14T08:58:11.417Z,82.62
2022-10-14T09:00:42.769Z,82.97
2022-10-14T09:03:19.415Z,82.92
2022-10-14T09:05:54.980Z,83.08
2022-10-14T09:08:30.929Z,83.23
2022-10-14T09:11:00.007Z,83.00
2022-10-14T09:13:36.491Z,82.84
2022-10-14T09:16:09.796Z,82.89
2022-10-14T09:18:41.905Z,82.83
2022-10-14T09:21:40.347Z,82.48
2022-10-14T09:24:19.027Z,82.42
2022-10-14T09:26:52.106Z,82.10
2022-10-14T09:29:27.230Z,82.45
2022-10-14T09:31:59.158Z,82.39
2022-10-14T09:34:32.667Z,82.53
2022-10-14T09:37:21.422Z,82.32
2022-10-14T09:39:51.150Z,82.06
2022-10-14T09:42:22.641Z,81.73
2022-10-14T09:45:10.920Z,81.07
2022-10-14T09:47:47.885Z,81.09
2022-10-14T09:50:24.156Z,81.46
2022-10-14T09:53:01.619Z,81.38
2022-10-14T09:55:30.950Z,81.58
2022-10-14T09:58:05.358Z,81.34
2022-10-14T10:00:37.992Z,81.26
2022-10-14T10:03:07.761Z,80.94
2022-10-14T10:05:37.400Z,80.56
2022-10-14T10:08:13.698Z,80.54
2022-10-14T10:10:43.510Z,80.74
2022-10-14T10:13:32.784Z,80.18
2022-10-14T10:16:03.845Z,80.34
2022-10-14T10:18:32.250Z,80.61
2022-10-14T10:21:07.669Z,80.56
2022-10-14T10:23:37.594Z,80.54
2022-10-14T10:26:18.607Z,80.06
2022-10-14T10:28:48.061Z,80.18
2022-10-14T10:31:35.319Z,79.88
2022-10-14T10:34:16.203Z,79.70
2022-10-14T10:36:50.907Z,80.04
2022-10-14T10:39:28.110Z,79.46
2022-10-14T10:42:06.217Z,79.46
2022-10-14T10:45:08.411Z,79.08
2022-10-14T10:47:45.737Z,78.93
2022-10-14T10:50:34.015Z,79.10
2022-10-14T10:53:29.571Z,78.75
2022-10-14T10:56:13.659Z,78.87
2022-10-14T10:58:50.342Z,78.72
2022-10-14T11:01:36.799Z,78.56
2022-10-14T11:04:31.128Z,78.22
2022-10-14T11:07:31.100Z,78.40
2022-10-14T11:10:25.540Z,78.88
2022-10-14T11:13:01.012Z,78.70
2022-10-14T11:15:43.216Z,78.48
2022-10-14T11:18:20.845Z,78.02
2022-10-14T11:21:04.181Z,77.22
2022-10-14T11:23:45.433Z,77.45
2022-10-14T11:26:25.361Z,78.46
2022-10-14T11:29:00.769Z,79.03
2022-10-14T11:31:36.922Z,79.17
2022-10-14T11:34:25.566Z,78.11
2022-10-14T11:37:06.167Z,77.73
2022-10-14T11:39:42.388Z,77.47
2022-10-14T11:42:29.936Z,77.21
2022-10-14T11:45:21.489Z,76.15
2022-10-14T11:48:07.144Z,74.36
2022-10-14T11:50:41.552Z,73.92
2022-10-14T11:53:18.153Z,72.66
2022-10-14T11:55:51.852Z,70.00
2022-10-14T11:58:27.133Z,68.60
2022-10-14T12:01:16.987Z,67.06
2022-10-14T12:03:58.847Z,66.61
2022-10-14T12:06:34.464Z,66.29
2022-10-14T12:09:11.089Z,64.82
2022-10-14T12:11:47.127Z,64.88
2022-10-14T12:14:21.453Z,64.66
2022-10-14T12:16:52.093Z,64.10
2022-10-14T12:19:26.018Z,62.66
2022-10-14T12:22:03.963Z,62.74
2022-10-14T12:24:38.642Z,62.18
2022-10-14T12:27:10.842Z,62.45
2022-10-14T12:29:43.555Z,61.72
2022-10-14T12:32:25.247Z,61.95
2022-10-14T12:34:55.058Z,62.37
2022-10-14T12:37:51.655Z,62.68
2022-10-14T12:40:31.826Z,62.80
2022-10-14T12:43:04.693Z,62.42
2022-10-14T12:45:36.827Z,62.52
2022-10-14T12:48:13.865Z,61.72
2022-10-14T12:50:46.399Z,61.44
2022-10-14T12:53:23.708Z,61.03
2022-10-14T12:55:55.960Z,60.19
2022-10-14T12:58:30.627Z,59.49
2022-10-14T13:01:03.239Z,58.18
2022-10-14T13:03:35.755Z,57.06
2022-10-14T13:06:30.579Z,57.47
2022-10-14T13:09:39.298Z,56.67
2022-10-14T13:12:44.042Z,57.10
2022-10-14T13:15:44.862Z,56.26
2022-10-14T13:18:50.908Z,54.86
2022-10-14T13:21:31.207Z,55.17
2022-10-14T13:24:02.947Z,54.21
2022-10-14T13:26:40.053Z,54.91
2022-10-14T13:29:29.695Z,54.79
2022-10-14T13:32:04.986Z,54.98
2022-10-14T13:34:47.586Z,54.99
2022-10-14T13:37:31.991Z,54.64
2022-10-14T13:40:09.472Z,54.61
2022-10-14T13:42:40.809Z,54.99
2022-10-14T13:45:14.093Z,54.13
2022-10-14T13:47:48.037Z,54.07
2022-10-14T13:50:23.546Z,54.08
2022-10-14T13:52:56.680Z,53.54
2022-10-14T13:55:27.279Z,52.39
2022-10-14T13:58:19.256Z,52.92
2022-10-14T14:00:59.555Z,53.13
2022-10-14T14:03:33.494Z,53.10
2022-10-14T14:06:02.522Z,53.02
2022-10-14T14:08:41.541Z,52.02
2022-10-14T14:11:19.186Z,52.31
2022-10-14T14:14:00.710Z,52.42
2022-10-14T14:16:34.999Z,52.40
2022-10-14T14:19:08.664Z,52.86
2022-10-14T14:21:37.869Z,52.24
2022-10-14T14:24:18.215Z,51.92
2022-10-14T14:26:55.525Z,52.49
2022-10-14T14:29:28.746Z,52.22
2022-10-14T14:32:08.662Z,52.00
2022-10-14T14:34:39.761Z,51.72
2022-10-14T14:37:40.254Z,52.82
2022-10-14T14:40:08.284Z,52.26
2022-10-14T14:42:39.656Z,52.16
2022-10-14T14:45:14.278Z,52.36
2022-10-14T14:47:45.511Z,52.49
2022-10-14T14:50:32.102Z,51.87
2022-10-14T14:53:04.394Z,51.59
2022-10-14T14:55:39.182Z,51.35
2022-10-14T14:58:28.324Z,51.11
2022-10-14T15:00:57.747Z,51.30
2022-10-14T15:03:29.988Z,51.73
2022-10-14T15:06:00.834Z,52.39
2022-10-14T15:08:32.616Z,52.08
2022-10-14T15:11:01.908Z,52.17
2022-10-14T15:13:43.589Z,52.41
2022-10-14T15:16:11.970Z,51.98
2022-10-14T15:18:43.689Z,52.51
2022-10-14T15:21:20.249Z,52.67
2022-10-14T15:24:03.432Z,53.06
2022-10-14T15:26:35.189Z,53.54
2022-10-14T15:29:18.855Z,53.19
2022-10-14T15:31:49.870Z,53.49
2022-10-14T15:34:22.131Z,53.98
2022-10-14T15:36:52.481Z,54.23
2022-10-14T15:39:21.136Z,54.11
2022-10-14T15:41:49.506Z,54.54
2022-10-14T15:44:17.811Z,54.88
2022-10-14T15:47:04.823Z,55.18
2022-10-14T15:49:39.163Z,54.57
2022-10-14T15:52:07.544Z,55.04
2022-10-14T15:54:35.886Z,55.31
2022-10-14T15:57:05.812Z,54.83
2022-10-14T15:59:36.440Z,55.48
2022-10-14T16:02:05.767Z,55.41
2022-10-14T16:04:39.261Z,55.51
2022-10-14T16:07:15.702Z,55.29
2022-10-14T16:09:45.320Z,55.71
2022-10-14T16:12:15.706Z,56.55
2022-10-14T16:14:44.011Z,57.00
2022-10-14T16:17:12.261Z,57.66
2022-10-14T16:19:42.288Z,57.67
2022-10-14T16:22:14.950Z,57.94
2022-10-14T16:24:43.286Z,58.16
2022-10-14T16:27:12.149Z,58.57
2022-10-14T16:29:40.502Z,59.31
2022-10-14T16:32:10.638Z,59.91
2022-10-14T16:34:38.883Z,60.31
2022-10-14T16:37:10.618Z,60.62
2022-10-14T16:39:39.334Z,61.26
2022-10-14T16:42:09.287Z,60.79
2022-10-14T16:44:37.649Z,60.61
2022-10-14T16:47:17.785Z,60.92
2022-10-14T16:49:46.986Z,60.61
2022-10-14T16:52:17.460Z,60.67
2022-10-14T16:54:46.014Z,60.92
2022-10-14T16:57:14.720Z,61.04
2022-10-14T16:59:43.042Z,61.10
2022-10-14T17:02:15.188Z,61.44
2022-10-14T17:04:46.508Z,61.60
2022-10-14T17:07:17.520Z,62.07
2022-10-14T17:09:45.875Z,62.33
2022-10-14T17:12:14.442Z,62.74
2022-10-14T17:14:43.029Z,63.02
2022-10-14T17:17:12.513Z,63.15
2022-10-14T17:19:42.976Z,63.47
2022-10-14T17:22:11.329Z,63.75
2022-10-14T17:24:41.002Z,64.03
2022-10-14T17:27:10.877Z,63.97
2022-10-14T17:29:39.239Z,63.95
2022-10-14T17:32:07.457Z,64.42
2022-10-14T17:34:35.700Z,65.29
2022-10-14T17:39:42.640Z,65.82
2022-10-14T17:42:10.901Z,65.98
2022-10-14T17:44:43.390Z,66.05
2022-10-14T17:47:12.202Z,66.21
2022-10-14T17:49:40.595Z,66.79
2022-10-14T17:52:08.926Z,67.03
2022-10-14T17:54:37.166Z,67.14
2022-10-14T17:57:06.860Z,67.39
2022-10-14T17:59:35.142Z,67.46
2022-10-14T18:02:04.259Z,67.65
2022-10-14T18:04:33.572Z,67.66
2022-10-14T18:07:01.999Z,67.93
2022-10-14T18:09:30.331Z,67.90
2022-10-14T18:12:13.989Z,68.23
2022-10-14T18:14:44.080Z,68.54
2022-10-14T18:17:12.896Z,68.91
2022-10-14T18:19:42.060Z,69.24
2022-10-14T18:22:11.191Z,69.26
2022-10-14T18:24:39.705Z,69.30
2022-10-14T18:27:08.179Z,69.67
2022-10-14T18:29:36.709Z,69.63
2022-10-14T18:32:06.831Z,69.63
2022-10-14T18:34:35.243Z,69.78
2022-10-14T18:37:03.460Z,69.60
2022-10-14T18:39:31.720Z,70.02
2022-10-14T18:41:59.967Z,70.02
2022-10-14T18:44:28.189Z,70.00
2022-10-14T18:46:57.015Z,70.22
2022-10-14T18:49:26.689Z,70.06
2022-10-14T18:51:55.689Z,70.34
2022-10-14T18:54:25.020Z,70.44
2022-10-14T18:56:53.563Z,70.00
2022-10-14T18:59:23.406Z,70.36
2022-10-14T19:01:53.344Z,70.49
2022-10-14T19:04:24.764Z,70.56
2022-10-14T19:06:54.628Z,70.55
2022-10-14T19:09:29.686Z,70.46
2022-10-14T19:11:59.120Z,70.40
2022-10-14T19:14:28.867Z,70.75
2022-10-14T19:16:57.582Z,70.47
2022-10-14T19:19:25.745Z,70.74
2022-10-14T19:21:56.442Z,71.09
2022-10-14T19:24:24.761Z,71.02
2022-10-14T19:26:54.533Z,70.80
2022-10-14T19:29:23.013Z,70.85
2022-10-14T19:31:54.699Z,71.29
2022-10-14T19:34:26.737Z,71.25
2022-10-14T19:37:00.159Z,71.17
2022-10-14T19:39:28.485Z,71.46
2022-10-14T19:41:57.317Z,71.06
2022-10-14T19:44:25.651Z,70.78
2022-10-14T19:46:54.218Z,71.01
2022-10-14T19:49:22.694Z,71.09
2022-10-14T19:51:51.629Z,70.93
2022-10-14T19:54:21.402Z,70.86
2022-10-14T19:56:49.580Z,70.81
2022-10-14T19:59:17.927Z,70.80
2022-10-14T20:01:46.202Z,70.97
2022-10-14T20:04:14.485Z,70.56
2022-10-14T20:06:43.874Z,70.49
2022-10-14T20:09:13.744Z,70.57
2022-10-14T20:11:43.900Z,70.72
2022-10-14T20:14:12.145Z,70.72
2022-10-14T20:16:40.525Z,71.18
2022-10-14T20:19:08.762Z,70.97
2022-10-14T20:21:37.097Z,70.86
2022-10-14T20:24:06.017Z,70.78
2022-10-14T20:26:34.502Z,71.13
2022-10-14T20:29:04.248Z,71.03
2022-10-14T20:31:32.563Z,71.34
2022-10-14T20:34:01.080Z,71.36
2022-10-14T20:36:29.471Z,71.44
2022-10-14T20:38:57.838Z,71.53
2022-10-14T20:41:27.790Z,70.97
2022-10-14T20:43:56.730Z,71.06
2022-10-14T20:46:26.351Z,71.05
2022-10-14T20:48:55.984Z,71.22
2022-10-14T20:51:24.554Z,71.46
2022-10-14T20:54:00.433Z,71.46
2022-10-14T20:56:32.686Z,71.87
2022-10-14T20:59:03.342Z,71.91
2022-10-14T21:01:34.378Z,72.14
2022-10-14T21:04:04.314Z,72.20
2022-10-14T21:06:32.745Z,72.45
2022-10-14T21:09:01.833Z,72.48
2022-10-14T21:11:30.369Z,72.51
2022-10-14T21:14:00.895Z,72.78
2022-10-14T21:16:33.807Z,73.00
2022-10-14T21:19:04.142Z,73.42
2022-10-14T21:21:35.905Z,73.47
2022-10-14T21:24:05.835Z,73.56
2022-10-14T21:26:35.476Z,73.21
2022-10-14T21:29:04.120Z,73.39
2022-10-14T21:31:34.834Z,73.11
2022-10-14T21:34:06.468Z,73.48
2022-10-14T21:36:42.222Z,73.45
2022-10-14T21:39:15.013Z,73.41
2022-10-14T21:41:43.987Z,73.47
2022-10-14T21:44:16.041Z,73.56
2022-10-14T21:46:45.779Z,73.25
2022-10-14T21:49:14.293Z,73.30
2022-10-14T21:51:42.853Z,73.13
2022-10-14T21:54:12.804Z,73.26
2022-10-14T21:56:41.049Z,73.28
2022-10-14T21:59:14.024Z,73.49
2022-10-14T22:01:43.508Z,73.82
2022-10-14T22:04:13.279Z,73.36
2022-10-14T22:06:41.539Z,73.17
2022-10-14T22:09:09.981Z,73.64
2022-10-14T22:11:40.658Z,73.34
2022-10-14T22:14:12.512Z,73.69
2022-10-14T22:16:41.318Z,73.63
2022-10-14T22:19:09.846Z,73.54
2022-10-14T22:21:41.545Z,73.42
2022-10-14T22:24:10.565Z,73.17
2022-10-14T22:26:40.540Z,73.08
2022-10-14T22:29:13.038Z,73.04
2022-10-14T22:31:41.789Z,72.89
2022-10-14T22:34:12.361Z,72.83
2022-10-14T22:36:42.784Z,73.17
2022-10-14T22:39:13.449Z,73.03
2022-10-14T22:41:41.688Z,73.32
2022-10-14T22:44:10.275Z,73.03
2022-10-14T22:46:40.405Z,73.23
2022-10-14T22:49:08.764Z,72.91
2022-10-14T22:51:40.575Z,73.09
2022-10-14T22:54:11.086Z,73.52
2022-10-14T22:56:40.248Z,73.66
2022-10-14T22:59:10.962Z,73.26
2022-10-14T23:01:40.825Z,72.79
2022-10-14T23:04:09.763Z,72.61
2022-10-14T23:06:38.307Z,72.59
2022-10-14T23:09:06.726Z,72.45
2022-10-14T23:11:36.347Z,73.05
2022-10-14T23:14:07.439Z,73.15
2022-10-14T23:16:36.457Z,73.59
2022-10-14T23:19:05.339Z,73.49
2022-10-14T23:21:35.606Z,74.08
2022-10-14T23:24:06.810Z,74.09
2022-10-14T23:26:36.962Z,73.82
2022-10-14T23:29:07.745Z,73.69
2022-10-14T23:31:38.062Z,73.40
2022-10-14T23:34:07.846Z,72.94
2022-10-14T23:36:36.090Z,73.08
2022-10-14T23:39:05.145Z,73.15
2022-10-14T23:41:33.421Z,73.13
2022-10-14T23:44:03.090Z,73.59
2022-10-14T23:46:31.432Z,73.37
2022-10-14T23:49:07.379Z,74.03
2022-10-14T23:51:42.933Z,73.99
2022-10-14T23:54:11.193Z,73.62
2022-10-14T23:56:39.954Z,73.45
2022-10-14T23:59:09.764Z,73.37
